sensor_id;sensor_type;location;lat;lon;timestamp;P1;durP1;ratioP1;P2;durP2;ratioP2
66559;SDS011;53413;49.878;8.142;2023-06-10T00:01:41;14.23;;;9.48;;
66559;SDS011;53413;49.878;8.142;2023-06-10T00:04:08;13.77;;;9.45;;
66559;SDS011;53413;49.878;8.142;2023-06-10T00:06:33;15.97;;;9.87;;
66559;SDS011;53413;49.878;8.142;2023-06-10T00:09:04;16.08;;;9.88;;
66559;SDS011;53413;49.878;8.142;2023-06-10T00:11:30;13.95;;;9.85;;
66559;SDS011;53413;49.878;8.142;2023-06-10T00:13:58;16.27;;;10.00;;
66559;SDS011;53413;49.878;8.142;2023-06-10T00:16:24;15.68;;;10.20;;
66559;SDS011;53413;49.878;8.142;2023-06-10T00:18:50;15.90;;;9.68;;
66559;SDS011;53413;49.878;8.142;2023-06-10T00:21:16;14.23;;;10.48;;
66559;SDS011;53413;49.878;8.142;2023-06-10T00:23:42;14.50;;;9.80;;
66559;SDS011;53413;49.878;8.142;2023-06-10T00:26:08;15.55;;;10.10;;
66559;SDS011;53413;49.878;8.142;2023-06-10T00:28:34;15.32;;;9.88;;
66559;SDS011;53413;49.878;8.142;2023-06-10T00:30:59;16.00;;;9.73;;
66559;SDS011;53413;49.878;8.142;2023-06-10T00:33:25;16.90;;;10.20;;
66559;SDS011;53413;49.878;8.142;2023-06-10T00:35:50;16.37;;;10.13;;
66559;SDS011;53413;49.878;8.142;2023-06-10T00:38:15;13.93;;;9.37;;
66559;SDS011;53413;49.878;8.142;2023-06-10T00:40:41;15.93;;;10.50;;
66559;SDS011;53413;49.878;8.142;2023-06-10T00:43:07;15.00;;;9.50;;
66559;SDS011;53413;49.878;8.142;2023-06-10T00:45:32;15.18;;;10.60;;
66559;SDS011;53413;49.878;8.142;2023-06-10T00:47:59;17.07;;;10.40;;
66559;SDS011;53413;49.878;8.142;2023-06-10T00:50:25;15.82;;;10.60;;
66559;SDS011;53413;49.878;8.142;2023-06-10T00:52:50;15.07;;;9.77;;
66559;SDS011;53413;49.878;8.142;2023-06-10T00:55:17;13.73;;;9.75;;
66559;SDS011;53413;49.878;8.142;2023-06-10T00:57:43;15.05;;;10.73;;
66559;SDS011;53413;49.878;8.142;2023-06-10T01:00:11;14.47;;;10.03;;
66559;SDS011;53413;49.878;8.142;2023-06-10T01:02:37;16.05;;;10.38;;
66559;SDS011;53413;49.878;8.142;2023-06-10T01:05:03;17.10;;;10.45;;
66559;SDS011;53413;49.878;8.142;2023-06-10T01:10:48;17.27;;;10.65;;
66559;SDS011;53413;49.878;8.142;2023-06-10T01:13:10;16.07;;;10.00;;
66559;SDS011;53413;49.878;8.142;2023-06-10T01:15:37;17.75;;;10.80;;
66559;SDS011;53413;49.878;8.142;2023-06-10T01:18:07;18.10;;;11.00;;
66559;SDS011;53413;49.878;8.142;2023-06-10T01:20:34;15.98;;;10.30;;
66559;SDS011;53413;49.878;8.142;2023-06-10T01:23:04;17.38;;;10.32;;
66559;SDS011;53413;49.878;8.142;2023-06-10T01:25:31;17.27;;;10.47;;
66559;SDS011;53413;49.878;8.142;2023-06-10T01:30:30;17.38;;;10.63;;
66559;SDS011;53413;49.878;8.142;2023-06-10T01:33:02;16.20;;;10.52;;
66559;SDS011;53413;49.878;8.142;2023-06-10T01:35:31;16.38;;;10.55;;
66559;SDS011;53413;49.878;8.142;2023-06-10T01:38:01;16.47;;;9.83;;
66559;SDS011;53413;49.878;8.142;2023-06-10T01:40:28;17.15;;;10.65;;
66559;SDS011;53413;49.878;8.142;2023-06-10T01:42:54;16.98;;;10.25;;
66559;SDS011;53413;49.878;8.142;2023-06-10T01:45:20;14.33;;;9.40;;
66559;SDS011;53413;49.878;8.142;2023-06-10T01:47:45;14.35;;;9.63;;
66559;SDS011;53413;49.878;8.142;2023-06-10T01:50:11;15.33;;;9.40;;
66559;SDS011;53413;49.878;8.142;2023-06-10T01:52:37;14.13;;;9.47;;
66559;SDS011;53413;49.878;8.142;2023-06-10T01:55:03;14.60;;;9.73;;
66559;SDS011;53413;49.878;8.142;2023-06-10T01:57:29;13.80;;;9.32;;
66559;SDS011;53413;49.878;8.142;2023-06-10T01:59:54;16.50;;;9.43;;
66559;SDS011;53413;49.878;8.142;2023-06-10T02:02:20;14.87;;;9.13;;
66559;SDS011;53413;49.878;8.142;2023-06-10T02:04:46;14.60;;;10.00;;
66559;SDS011;53413;49.878;8.142;2023-06-10T02:07:12;16.40;;;9.57;;
66559;SDS011;53413;49.878;8.142;2023-06-10T02:09:37;13.88;;;8.80;;
66559;SDS011;53413;49.878;8.142;2023-06-10T02:12:03;15.25;;;9.00;;
66559;SDS011;53413;49.878;8.142;2023-06-10T02:14:29;14.70;;;9.07;;
66559;SDS011;53413;49.878;8.142;2023-06-10T02:16:54;15.00;;;9.45;;
66559;SDS011;53413;49.878;8.142;2023-06-10T02:19:21;15.65;;;9.85;;
66559;SDS011;53413;49.878;8.142;2023-06-10T02:21:47;14.95;;;9.20;;
66559;SDS011;53413;49.878;8.142;2023-06-10T02:24:12;14.37;;;9.60;;
66559;SDS011;53413;49.878;8.142;2023-06-10T02:26:38;16.05;;;9.38;;
66559;SDS011;53413;49.878;8.142;2023-06-10T02:29:03;15.77;;;9.15;;
66559;SDS011;53413;49.878;8.142;2023-06-10T02:31:28;13.50;;;9.10;;
66559;SDS011;53413;49.878;8.142;2023-06-10T02:33:54;14.63;;;9.50;;
66559;SDS011;53413;49.878;8.142;2023-06-10T02:36:20;14.65;;;9.43;;
66559;SDS011;53413;49.878;8.142;2023-06-10T02:38:46;14.93;;;9.50;;
66559;SDS011;53413;49.878;8.142;2023-06-10T02:41:12;14.87;;;9.43;;
66559;SDS011;53413;49.878;8.142;2023-06-10T02:43:37;14.70;;;9.10;;
66559;SDS011;53413;49.878;8.142;2023-06-10T02:46:02;14.30;;;9.40;;
66559;SDS011;53413;49.878;8.142;2023-06-10T02:48:28;13.50;;;9.17;;
66559;SDS011;53413;49.878;8.142;2023-06-10T02:50:56;15.18;;;9.25;;
66559;SDS011;53413;49.878;8.142;2023-06-10T02:53:22;14.13;;;9.30;;
66559;SDS011;53413;49.878;8.142;2023-06-10T02:55:47;13.43;;;9.05;;
66559;SDS011;53413;49.878;8.142;2023-06-10T02:58:12;15.07;;;8.93;;
66559;SDS011;53413;49.878;8.142;2023-06-10T03:00:38;14.03;;;9.17;;
66559;SDS011;53413;49.878;8.142;2023-06-10T03:03:05;14.48;;;8.85;;
66559;SDS011;53413;49.878;8.142;2023-06-10T03:05:30;12.97;;;8.73;;
66559;SDS011;53413;49.878;8.142;2023-06-10T03:07:56;13.60;;;9.03;;
66559;SDS011;53413;49.878;8.142;2023-06-10T03:10:21;13.73;;;8.60;;
66559;SDS011;53413;49.878;8.142;2023-06-10T03:12:46;15.47;;;8.87;;
66559;SDS011;53413;49.878;8.142;2023-06-10T03:15:12;13.53;;;9.30;;
66559;SDS011;53413;49.878;8.142;2023-06-10T03:17:38;14.65;;;9.02;;
66559;SDS011;53413;49.878;8.142;2023-06-10T03:20:03;16.97;;;9.63;;
66559;SDS011;53413;49.878;8.142;2023-06-10T03:22:35;14.35;;;9.23;;
66559;SDS011;53413;49.878;8.142;2023-06-10T03:25:00;16.53;;;9.00;;
66559;SDS011;53413;49.878;8.142;2023-06-10T03:27:26;13.50;;;9.18;;
66559;SDS011;53413;49.878;8.142;2023-06-10T03:29:51;15.55;;;9.70;;
66559;SDS011;53413;49.878;8.142;2023-06-10T03:32:17;15.77;;;9.77;;
66559;SDS011;53413;49.878;8.142;2023-06-10T03:34:43;15.07;;;9.50;;
66559;SDS011;53413;49.878;8.142;2023-06-10T03:37:10;16.02;;;9.88;;
66559;SDS011;53413;49.878;8.142;2023-06-10T03:39:35;14.87;;;9.30;;
66559;SDS011;53413;49.878;8.142;2023-06-10T03:42:00;16.57;;;9.87;;
66559;SDS011;53413;49.878;8.142;2023-06-10T03:44:26;13.97;;;9.30;;
66559;SDS011;53413;49.878;8.142;2023-06-10T03:46:51;15.38;;;9.40;;
66559;SDS011;53413;49.878;8.142;2023-06-10T03:49:17;13.90;;;9.00;;
66559;SDS011;53413;49.878;8.142;2023-06-10T03:51:42;15.03;;;9.57;;
66559;SDS011;53413;49.878;8.142;2023-06-10T03:54:08;15.07;;;8.80;;
66559;SDS011;53413;49.878;8.142;2023-06-10T03:56:33;13.93;;;8.37;;
66559;SDS011;53413;49.878;8.142;2023-06-10T03:59:00;14.05;;;8.88;;
66559;SDS011;53413;49.878;8.142;2023-06-10T04:01:26;14.47;;;8.30;;
66559;SDS011;53413;49.878;8.142;2023-06-10T04:03:52;12.40;;;8.30;;
66559;SDS011;53413;49.878;8.142;2023-06-10T04:06:19;14.20;;;8.13;;
66559;SDS011;53413;49.878;8.142;2023-06-10T04:08:44;12.27;;;7.50;;
66559;SDS011;53413;49.878;8.142;2023-06-10T04:11:10;14.13;;;8.10;;
66559;SDS011;53413;49.878;8.142;2023-06-10T04:13:35;13.15;;;7.63;;
66559;SDS011;53413;49.878;8.142;2023-06-10T04:16:01;12.23;;;7.67;;
66559;SDS011;53413;49.878;8.142;2023-06-10T04:18:27;12.80;;;7.05;;
66559;SDS011;53413;49.878;8.142;2023-06-10T04:20:53;12.40;;;7.50;;
66559;SDS011;53413;49.878;8.142;2023-06-10T04:23:18;12.07;;;7.03;;
66559;SDS011;53413;49.878;8.142;2023-06-10T04:25:44;12.53;;;6.87;;
66559;SDS011;53413;49.878;8.142;2023-06-10T04:28:09;13.47;;;6.80;;
66559;SDS011;53413;49.878;8.142;2023-06-10T04:30:34;11.93;;;7.00;;
66559;SDS011;53413;49.878;8.142;2023-06-10T04:33:00;13.33;;;7.10;;
66559;SDS011;53413;49.878;8.142;2023-06-10T04:35:25;11.67;;;6.37;;
66559;SDS011;53413;49.878;8.142;2023-06-10T04:37:53;11.48;;;6.88;;
66559;SDS011;53413;49.878;8.142;2023-06-10T04:40:19;11.05;;;6.72;;
66559;SDS011;53413;49.878;8.142;2023-06-10T04:42:44;11.23;;;7.07;;
66559;SDS011;53413;49.878;8.142;2023-06-10T04:45:10;11.53;;;6.33;;
66559;SDS011;53413;49.878;8.142;2023-06-10T04:47:36;10.48;;;6.68;;
66559;SDS011;53413;49.878;8.142;2023-06-10T04:50:01;11.23;;;7.07;;
66559;SDS011;53413;49.878;8.142;2023-06-10T04:52:28;12.55;;;6.97;;
66559;SDS011;53413;49.878;8.142;2023-06-10T04:54:54;12.03;;;6.60;;
66559;SDS011;53413;49.878;8.142;2023-06-10T04:57:19;11.33;;;6.57;;
66559;SDS011;53413;49.878;8.142;2023-06-10T04:59:45;11.90;;;7.13;;
66559;SDS011;53413;49.878;8.142;2023-06-10T05:02:11;12.57;;;6.78;;
66559;SDS011;53413;49.878;8.142;2023-06-10T05:04:37;13.47;;;6.40;;
66559;SDS011;53413;49.878;8.142;2023-06-10T05:07:02;11.10;;;6.50;;
66559;SDS011;53413;49.878;8.142;2023-06-10T05:09:27;12.48;;;6.40;;
66559;SDS011;53413;49.878;8.142;2023-06-10T05:11:53;10.48;;;6.60;;
66559;SDS011;53413;49.878;8.142;2023-06-10T05:14:19;10.53;;;6.23;;
66559;SDS011;53413;49.878;8.142;2023-06-10T05:16:45;11.65;;;6.60;;
66559;SDS011;53413;49.878;8.142;2023-06-10T05:19:11;10.70;;;6.85;;
66559;SDS011;53413;49.878;8.142;2023-06-10T05:21:37;11.87;;;6.93;;
66559;SDS011;53413;49.878;8.142;2023-06-10T05:24:02;11.20;;;6.73;;
66559;SDS011;53413;49.878;8.142;2023-06-10T05:26:27;11.60;;;6.70;;
66559;SDS011;53413;49.878;8.142;2023-06-10T05:28:54;9.77;;;6.20;;
66559;SDS011;53413;49.878;8.142;2023-06-10T05:31:19;11.93;;;6.77;;
66559;SDS011;53413;49.878;8.142;2023-06-10T05:33:44;11.13;;;6.30;;
66559;SDS011;53413;49.878;8.142;2023-06-10T05:36:10;13.17;;;6.90;;
66559;SDS011;53413;49.878;8.142;2023-06-10T05:38:35;13.03;;;7.23;;
66559;SDS011;53413;49.878;8.142;2023-06-10T05:41:00;10.20;;;7.20;;
66559;SDS011;53413;49.878;8.142;2023-06-10T05:43:26;10.67;;;7.00;;
66559;SDS011;53413;49.878;8.142;2023-06-10T05:45:51;11.13;;;7.03;;
66559;SDS011;53413;49.878;8.142;2023-06-10T05:48:17;11.20;;;6.85;;
66559;SDS011;53413;49.878;8.142;2023-06-10T05:50:42;9.20;;;6.57;;
66559;SDS011;53413;49.878;8.142;2023-06-10T05:53:13;9.73;;;6.70;;
66559;SDS011;53413;49.878;8.142;2023-06-10T05:55:43;10.83;;;6.80;;
66559;SDS011;53413;49.878;8.142;2023-06-10T05:58:12;11.27;;;6.90;;
66559;SDS011;53413;49.878;8.142;2023-06-10T06:00:39;10.25;;;6.90;;
66559;SDS011;53413;49.878;8.142;2023-06-10T06:03:06;8.50;;;6.22;;
66559;SDS011;53413;49.878;8.142;2023-06-10T06:05:32;9.20;;;6.35;;
66559;SDS011;53413;49.878;8.142;2023-06-10T06:08:00;9.10;;;6.77;;
66559;SDS011;53413;49.878;8.142;2023-06-10T06:10:29;7.78;;;6.75;;
66559;SDS011;53413;49.878;8.142;2023-06-10T06:12:55;9.00;;;6.80;;
66559;SDS011;53413;49.878;8.142;2023-06-10T06:15:20;9.50;;;6.90;;
66559;SDS011;53413;49.878;8.142;2023-06-10T06:17:46;9.53;;;7.17;;
66559;SDS011;53413;49.878;8.142;2023-06-10T06:20:11;9.50;;;7.30;;
66559;SDS011;53413;49.878;8.142;2023-06-10T06:22:36;8.83;;;7.23;;
66559;SDS011;53413;49.878;8.142;2023-06-10T06:25:02;8.02;;;6.55;;
66559;SDS011;53413;49.878;8.142;2023-06-10T06:27:28;9.50;;;6.70;;
66559;SDS011;53413;49.878;8.142;2023-06-10T06:29:53;8.63;;;6.93;;
66559;SDS011;53413;49.878;8.142;2023-06-10T06:32:18;9.43;;;6.47;;
66559;SDS011;53413;49.878;8.142;2023-06-10T06:34:44;9.50;;;7.07;;
66559;SDS011;53413;49.878;8.142;2023-06-10T06:37:09;10.47;;;6.80;;
66559;SDS011;53413;49.878;8.142;2023-06-10T06:39:35;8.47;;;7.10;;
66559;SDS011;53413;49.878;8.142;2023-06-10T06:42:00;10.75;;;6.65;;
66559;SDS011;53413;49.878;8.142;2023-06-10T06:44:25;9.30;;;7.10;;
66559;SDS011;53413;49.878;8.142;2023-06-10T06:46:51;8.27;;;7.10;;
66559;SDS011;53413;49.878;8.142;2023-06-10T06:49:16;7.97;;;7.00;;
66559;SDS011;53413;49.878;8.142;2023-06-10T06:51:41;8.60;;;6.90;;
66559;SDS011;53413;49.878;8.142;2023-06-10T06:54:07;8.87;;;7.13;;
66559;SDS011;53413;49.878;8.142;2023-06-10T06:56:32;9.00;;;7.20;;
66559;SDS011;53413;49.878;8.142;2023-06-10T06:58:57;9.10;;;6.87;;
66559;SDS011;53413;49.878;8.142;2023-06-10T07:01:23;8.90;;;6.88;;
66559;SDS011;53413;49.878;8.142;2023-06-10T07:03:48;9.50;;;6.70;;
66559;SDS011;53413;49.878;8.142;2023-06-10T07:06:14;8.43;;;7.20;;
66559;SDS011;53413;49.878;8.142;2023-06-10T07:08:39;8.77;;;6.87;;
66559;SDS011;53413;49.878;8.142;2023-06-10T07:11:04;8.83;;;7.40;;
66559;SDS011;53413;49.878;8.142;2023-06-10T07:13:30;9.47;;;6.80;;
66559;SDS011;53413;49.878;8.142;2023-06-10T07:15:55;9.13;;;7.47;;
66559;SDS011;53413;49.878;8.142;2023-06-10T07:18:20;10.27;;;7.40;;
66559;SDS011;53413;49.878;8.142;2023-06-10T07:20:46;7.93;;;7.10;;
66559;SDS011;53413;49.878;8.142;2023-06-10T07:23:11;7.70;;;6.90;;
66559;SDS011;53413;49.878;8.142;2023-06-10T07:25:36;8.53;;;6.83;;
66559;SDS011;53413;49.878;8.142;2023-06-10T07:28:02;9.93;;;6.87;;
66559;SDS011;53413;49.878;8.142;2023-06-10T07:30:27;9.10;;;7.53;;
66559;SDS011;53413;49.878;8.142;2023-06-10T07:32:53;8.70;;;7.53;;
66559;SDS011;53413;49.878;8.142;2023-06-10T07:35:18;8.80;;;7.33;;
66559;SDS011;53413;49.878;8.142;2023-06-10T07:37:44;8.50;;;7.50;;
66559;SDS011;53413;49.878;8.142;2023-06-10T07:40:10;8.60;;;7.10;;
66559;SDS011;53413;49.878;8.142;2023-06-10T07:42:35;8.37;;;7.17;;
66559;SDS011;53413;49.878;8.142;2023-06-10T07:45:02;8.03;;;6.93;;
66559;SDS011;53413;49.878;8.142;2023-06-10T07:47:28;8.88;;;7.10;;
66559;SDS011;53413;49.878;8.142;2023-06-10T07:49:54;8.75;;;7.63;;
66559;SDS011;53413;49.878;8.142;2023-06-10T07:52:19;8.23;;;7.43;;
66559;SDS011;53413;49.878;8.142;2023-06-10T07:54:45;8.03;;;7.00;;
66559;SDS011;53413;49.878;8.142;2023-06-10T07:57:10;8.67;;;7.23;;
66559;SDS011;53413;49.878;8.142;2023-06-10T07:59:35;7.95;;;6.90;;
66559;SDS011;53413;49.878;8.142;2023-06-10T08:02:01;8.23;;;6.60;;
66559;SDS011;53413;49.878;8.142;2023-06-10T08:04:26;8.57;;;7.30;;
66559;SDS011;53413;49.878;8.142;2023-06-10T08:06:52;8.27;;;7.47;;
66559;SDS011;53413;49.878;8.142;2023-06-10T08:09:17;8.90;;;7.30;;
66559;SDS011;53413;49.878;8.142;2023-06-10T08:11:43;7.90;;;7.10;;
66559;SDS011;53413;49.878;8.142;2023-06-10T08:14:09;8.05;;;7.20;;
66559;SDS011;53413;49.878;8.142;2023-06-10T08:16:34;7.37;;;6.40;;
66559;SDS011;53413;49.878;8.142;2023-06-10T08:19:00;8.63;;;7.20;;
66559;SDS011;53413;49.878;8.142;2023-06-10T08:21:25;7.70;;;6.90;;
66559;SDS011;53413;49.878;8.142;2023-06-10T08:23:53;8.20;;;7.10;;
66559;SDS011;53413;49.878;8.142;2023-06-10T08:26:19;8.10;;;7.30;;
66559;SDS011;53413;49.878;8.142;2023-06-10T08:28:45;8.43;;;7.13;;
66559;SDS011;53413;49.878;8.142;2023-06-10T08:31:10;7.90;;;7.10;;
66559;SDS011;53413;49.878;8.142;2023-06-10T08:33:35;7.23;;;6.53;;
66559;SDS011;53413;49.878;8.142;2023-06-10T08:36:01;8.90;;;7.30;;
66559;SDS011;53413;49.878;8.142;2023-06-10T08:38:26;7.37;;;6.63;;
66559;SDS011;53413;49.878;8.142;2023-06-10T08:40:51;7.07;;;6.38;;
66559;SDS011;53413;49.878;8.142;2023-06-10T08:43:22;8.13;;;6.40;;
66559;SDS011;53413;49.878;8.142;2023-06-10T08:46:04;7.60;;;6.50;;
66559;SDS011;53413;49.878;8.142;2023-06-10T08:48:34;8.65;;;7.07;;
66559;SDS011;53413;49.878;8.142;2023-06-10T08:51:01;8.23;;;6.90;;
66559;SDS011;53413;49.878;8.142;2023-06-10T08:53:30;8.50;;;7.70;;
66559;SDS011;53413;49.878;8.142;2023-06-10T08:55:59;7.70;;;6.90;;
66559;SDS011;53413;49.878;8.142;2023-06-10T08:58:27;9.00;;;7.57;;
66559;SDS011;53413;49.878;8.142;2023-06-10T09:00:53;9.90;;;8.00;;
66559;SDS011;53413;49.878;8.142;2023-06-10T09:03:19;8.68;;;7.43;;
66559;SDS011;53413;49.878;8.142;2023-06-10T09:05:45;8.13;;;7.33;;
66559;SDS011;53413;49.878;8.142;2023-06-10T09:08:11;8.48;;;6.90;;
66559;SDS011;53413;49.878;8.142;2023-06-10T09:10:38;8.35;;;7.10;;
66559;SDS011;53413;49.878;8.142;2023-06-10T09:13:03;8.27;;;7.38;;
66559;SDS011;53413;49.878;8.142;2023-06-10T09:15:29;8.18;;;7.20;;
66559;SDS011;53413;49.878;8.142;2023-06-10T09:17:54;7.90;;;7.10;;
66559;SDS011;53413;49.878;8.142;2023-06-10T09:20:20;10.57;;;7.73;;
66559;SDS011;53413;49.878;8.142;2023-06-10T09:22:45;8.87;;;7.97;;
66559;SDS011;53413;49.878;8.142;2023-06-10T09:25:11;8.35;;;7.45;;
66559;SDS011;53413;49.878;8.142;2023-06-10T09:27:47;9.40;;;7.53;;
66559;SDS011;53413;49.878;8.142;2023-06-10T09:30:28;8.25;;;7.30;;
66559;SDS011;53413;49.878;8.142;2023-06-10T09:32:58;8.60;;;7.70;;
66559;SDS011;53413;49.878;8.142;2023-06-10T09:35:26;8.80;;;7.93;;
66559;SDS011;53413;49.878;8.142;2023-06-10T09:37:52;8.80;;;7.90;;
66559;SDS011;53413;49.878;8.142;2023-06-10T09:40:19;7.93;;;7.13;;
66559;SDS011;53413;49.878;8.142;2023-06-10T09:42:44;9.32;;;8.45;;
66559;SDS011;53413;49.878;8.142;2023-06-10T09:45:10;8.83;;;7.87;;
66559;SDS011;53413;49.878;8.142;2023-06-10T09:47:35;9.37;;;8.20;;
66559;SDS011;53413;49.878;8.142;2023-06-10T09:50:00;8.17;;;7.37;;
66559;SDS011;53413;49.878;8.142;2023-06-10T09:52:27;9.52;;;7.93;;
66559;SDS011;53413;49.878;8.142;2023-06-10T09:54:53;8.75;;;7.80;;
66559;SDS011;53413;49.878;8.142;2023-06-10T09:57:23;9.00;;;8.10;;
66559;SDS011;53413;49.878;8.142;2023-06-10T09:59:52;8.27;;;7.47;;
66559;SDS011;53413;49.878;8.142;2023-06-10T10:02:18;9.13;;;7.25;;
66559;SDS011;53413;49.878;8.142;2023-06-10T10:04:44;10.00;;;7.93;;
66559;SDS011;53413;49.878;8.142;2023-06-10T10:07:10;8.27;;;7.47;;
66559;SDS011;53413;49.878;8.142;2023-06-10T10:09:39;9.40;;;7.88;;
66559;SDS011;53413;49.878;8.142;2023-06-10T10:12:14;8.20;;;7.38;;
66559;SDS011;53413;49.878;8.142;2023-06-10T10:14:43;9.05;;;7.30;;
66559;SDS011;53413;49.878;8.142;2023-06-10T10:17:11;9.57;;;7.53;;
66559;SDS011;53413;49.878;8.142;2023-06-10T10:20:02;8.68;;;7.30;;
66559;SDS011;53413;49.878;8.142;2023-06-10T10:22:29;8.80;;;7.50;;
66559;SDS011;53413;49.878;8.142;2023-06-10T10:25:01;9.85;;;7.68;;
66559;SDS011;53413;49.878;8.142;2023-06-10T10:27:33;9.82;;;7.32;;
66559;SDS011;53413;49.878;8.142;2023-06-10T10:30:00;8.68;;;7.30;;
66559;SDS011;53413;49.878;8.142;2023-06-10T10:32:32;8.35;;;6.90;;
66559;SDS011;53413;49.878;8.142;2023-06-10T10:35:21;9.27;;;6.65;;
66559;SDS011;53413;49.878;8.142;2023-06-10T10:37:48;9.38;;;7.20;;
66559;SDS011;53413;49.878;8.142;2023-06-10T10:40:16;9.63;;;7.28;;
66559;SDS011;53413;49.878;8.142;2023-06-10T10:42:42;9.52;;;7.70;;
66559;SDS011;53413;49.878;8.142;2023-06-10T10:45:08;9.15;;;7.50;;
66559;SDS011;53413;49.878;8.142;2023-06-10T10:47:34;9.82;;;7.78;;
66559;SDS011;53413;49.878;8.142;2023-06-10T10:50:03;9.07;;;6.95;;
66559;SDS011;53413;49.878;8.142;2023-06-10T10:53:00;8.90;;;6.38;;
66559;SDS011;53413;49.878;8.142;2023-06-10T10:55:26;8.60;;;6.63;;
66559;SDS011;53413;49.878;8.142;2023-06-10T10:57:56;8.93;;;7.05;;
66559;SDS011;53413;49.878;8.142;2023-06-10T11:00:32;8.90;;;6.90;;
66559;SDS011;53413;49.878;8.142;2023-06-10T11:05:31;9.73;;;6.90;;
66559;SDS011;53413;49.878;8.142;2023-06-10T11:08:01;9.53;;;6.60;;
66559;SDS011;53413;49.878;8.142;2023-06-10T11:10:31;9.43;;;7.60;;
66559;SDS011;53413;49.878;8.142;2023-06-10T11:12:57;9.63;;;6.93;;
66559;SDS011;53413;49.878;8.142;2023-06-10T11:15:23;8.55;;;6.38;;
66559;SDS011;53413;49.878;8.142;2023-06-10T11:18:09;10.35;;;7.63;;
66559;SDS011;53413;49.878;8.142;2023-06-10T11:31:25;10.27;;;7.20;;
66559;SDS011;53413;49.878;8.142;2023-06-10T11:33:52;9.52;;;7.18;;
66559;SDS011;53413;49.878;8.142;2023-06-10T11:36:21;9.05;;;7.03;;
66559;SDS011;53413;49.878;8.142;2023-06-10T11:38:48;9.38;;;7.13;;
66559;SDS011;53413;49.878;8.142;2023-06-10T11:41:14;10.73;;;7.40;;
66559;SDS011;53413;49.878;8.142;2023-06-10T11:43:43;10.15;;;7.30;;
66559;SDS011;53413;49.878;8.142;2023-06-10T11:46:09;9.93;;;7.70;;
66559;SDS011;53413;49.878;8.142;2023-06-10T11:48:35;9.88;;;7.50;;
66559;SDS011;53413;49.878;8.142;2023-06-10T11:51:01;9.90;;;7.63;;
66559;SDS011;53413;49.878;8.142;2023-06-10T11:53:29;9.43;;;7.47;;
66559;SDS011;53413;49.878;8.142;2023-06-10T11:55:55;8.93;;;7.53;;
66559;SDS011;53413;49.878;8.142;2023-06-10T11:58:21;8.93;;;7.30;;
66559;SDS011;53413;49.878;8.142;2023-06-10T12:00:47;9.27;;;7.18;;
66559;SDS011;53413;49.878;8.142;2023-06-10T12:03:14;9.63;;;7.25;;
66559;SDS011;53413;49.878;8.142;2023-06-10T12:05:40;9.48;;;6.85;;
66559;SDS011;53413;49.878;8.142;2023-06-10T12:08:09;9.73;;;7.10;;
66559;SDS011;53413;49.878;8.142;2023-06-10T12:10:41;10.32;;;7.25;;
66559;SDS011;53413;49.878;8.142;2023-06-10T12:13:10;8.73;;;6.45;;
66559;SDS011;53413;49.878;8.142;2023-06-10T12:15:36;9.15;;;6.90;;
66559;SDS011;53413;49.878;8.142;2023-06-10T12:18:02;9.53;;;6.90;;
66559;SDS011;53413;49.878;8.142;2023-06-10T12:20:31;8.43;;;7.03;;
66559;SDS011;53413;49.878;8.142;2023-06-10T12:22:59;10.93;;;7.35;;
66559;SDS011;53413;49.878;8.142;2023-06-10T12:25:26;10.60;;;7.63;;
66559;SDS011;53413;49.878;8.142;2023-06-10T12:27:53;9.52;;;7.72;;
66559;SDS011;53413;49.878;8.142;2023-06-10T12:30:23;9.55;;;7.82;;
66559;SDS011;53413;49.878;8.142;2023-06-10T12:32:49;9.57;;;7.45;;
66559;SDS011;53413;49.878;8.142;2023-06-10T12:35:16;10.82;;;7.45;;
66559;SDS011;53413;49.878;8.142;2023-06-10T12:37:43;9.70;;;7.22;;
66559;SDS011;53413;49.878;8.142;2023-06-10T12:40:32;10.85;;;6.95;;
66559;SDS011;53413;49.878;8.142;2023-06-10T12:42:59;9.23;;;7.40;;
66559;SDS011;53413;49.878;8.142;2023-06-10T12:48:03;10.68;;;7.47;;
66559;SDS011;53413;49.878;8.142;2023-06-10T12:50:30;10.02;;;7.13;;
66559;SDS011;53413;49.878;8.142;2023-06-10T12:52:56;9.00;;;7.20;;
66559;SDS011;53413;49.878;8.142;2023-06-10T12:55:22;9.70;;;6.93;;
66559;SDS011;53413;49.878;8.142;2023-06-10T12:57:47;8.60;;;6.87;;
66559;SDS011;53413;49.878;8.142;2023-06-10T13:00:14;7.70;;;5.78;;
66559;SDS011;53413;49.878;8.142;2023-06-10T13:02:40;7.97;;;6.00;;
66559;SDS011;53413;49.878;8.142;2023-06-10T13:05:05;7.80;;;6.03;;
66559;SDS011;53413;49.878;8.142;2023-06-10T13:07:31;8.23;;;5.65;;
66559;SDS011;53413;49.878;8.142;2023-06-10T13:09:56;7.90;;;5.63;;
66559;SDS011;53413;49.878;8.142;2023-06-10T13:12:22;8.38;;;6.00;;
66559;SDS011;53413;49.878;8.142;2023-06-10T13:14:50;8.48;;;6.00;;
66559;SDS011;53413;49.878;8.142;2023-06-10T13:17:15;7.13;;;5.70;;
66559;SDS011;53413;49.878;8.142;2023-06-10T13:19:40;7.77;;;5.90;;
66559;SDS011;53413;49.878;8.142;2023-06-10T13:22:06;9.00;;;6.00;;
66559;SDS011;53413;49.878;8.142;2023-06-10T13:24:31;8.10;;;5.60;;
66559;SDS011;53413;49.878;8.142;2023-06-10T13:26:57;9.07;;;5.47;;
66559;SDS011;53413;49.878;8.142;2023-06-10T13:29:22;7.45;;;5.35;;
66559;SDS011;53413;49.878;8.142;2023-06-10T13:31:48;7.67;;;5.30;;
66559;SDS011;53413;49.878;8.142;2023-06-10T13:34:13;7.77;;;5.80;;
66559;SDS011;53413;49.878;8.142;2023-06-10T13:36:38;8.57;;;5.30;;
66559;SDS011;53413;49.878;8.142;2023-06-10T13:39:04;7.28;;;5.30;;
66559;SDS011;53413;49.878;8.142;2023-06-10T13:41:29;7.00;;;5.25;;
66559;SDS011;53413;49.878;8.142;2023-06-10T13:43:55;6.97;;;4.90;;
66559;SDS011;53413;49.878;8.142;2023-06-10T13:46:20;8.20;;;5.40;;
66559;SDS011;53413;49.878;8.142;2023-06-10T13:48:51;7.70;;;5.50;;
66559;SDS011;53413;49.878;8.142;2023-06-10T13:51:16;8.20;;;4.82;;
66559;SDS011;53413;49.878;8.142;2023-06-10T13:53:42;8.52;;;4.90;;
66559;SDS011;53413;49.878;8.142;2023-06-10T13:56:07;6.80;;;5.10;;
66559;SDS011;53413;49.878;8.142;2023-06-10T13:58:33;7.35;;;5.25;;
66559;SDS011;53413;49.878;8.142;2023-06-10T14:01:03;7.85;;;5.43;;
66559;SDS011;53413;49.878;8.142;2023-06-10T14:03:29;7.35;;;5.50;;
66559;SDS011;53413;49.878;8.142;2023-06-10T14:05:54;7.57;;;5.37;;
66559;SDS011;53413;49.878;8.142;2023-06-10T14:08:20;8.17;;;5.37;;
66559;SDS011;53413;49.878;8.142;2023-06-10T14:10:46;8.20;;;5.60;;
66559;SDS011;53413;49.878;8.142;2023-06-10T14:13:11;14.80;;;10.30;;
66559;SDS011;53413;49.878;8.142;2023-06-10T14:15:36;9.03;;;6.27;;
66559;SDS011;53413;49.878;8.142;2023-06-10T14:18:02;6.67;;;5.10;;
66559;SDS011;53413;49.878;8.142;2023-06-10T14:20:27;8.27;;;5.70;;
66559;SDS011;53413;49.878;8.142;2023-06-10T14:22:56;7.47;;;5.50;;
66559;SDS011;53413;49.878;8.142;2023-06-10T14:25:22;8.57;;;5.50;;
66559;SDS011;53413;49.878;8.142;2023-06-10T14:27:47;8.17;;;5.60;;
66559;SDS011;53413;49.878;8.142;2023-06-10T14:30:12;7.77;;;5.67;;
66559;SDS011;53413;49.878;8.142;2023-06-10T14:32:38;8.10;;;6.00;;
66559;SDS011;53413;49.878;8.142;2023-06-10T14:35:04;7.70;;;5.73;;
66559;SDS011;53413;49.878;8.142;2023-06-10T14:37:29;8.68;;;6.18;;
66559;SDS011;53413;49.878;8.142;2023-06-10T14:39:55;8.00;;;5.40;;
66559;SDS011;53413;49.878;8.142;2023-06-10T14:42:20;7.93;;;5.60;;
66559;SDS011;53413;49.878;8.142;2023-06-10T14:44:45;7.50;;;5.80;;
66559;SDS011;53413;49.878;8.142;2023-06-10T14:47:10;7.53;;;5.50;;
66559;SDS011;53413;49.878;8.142;2023-06-10T14:49:36;7.47;;;5.80;;
66559;SDS011;53413;49.878;8.142;2023-06-10T14:52:01;7.63;;;5.80;;
66559;SDS011;53413;49.878;8.142;2023-06-10T14:54:27;8.05;;;5.70;;
66559;SDS011;53413;49.878;8.142;2023-06-10T14:56:52;8.63;;;5.83;;
66559;SDS011;53413;49.878;8.142;2023-06-10T14:59:18;7.87;;;5.77;;